Terminal Aerodrome Forecast
Issued by NWS Amarillo, TX

Home | Current Version | Previous Version | Text Only | Print | Product List | Glossary On
Versions: 1 2 3 4 5 6 7 8 9 10 11 12 13 14 15 16 17 18 19 20 21 22 23 24 25
000
FTUS44 KAMA 301126
TAFDHT
TAF
KDHT 301126Z 3012/0112 32030G40KT 4SM -SN BLSN BR OVC005
     FM301500 32035G45KT P6SM VCSH OVC015
     FM301700 32035G45KT P6SM OVC100
     FM302300 31015KT P6SM SKC
      AMD NOT SKED=

USA.gov is the U.S. government's official web portal to all federal, state and local government web resources and services.